createdAt,value
2022-12-01T00:04:48.062Z,9.90
2022-12-01T00:10:08.015Z,9.80
2022-12-01T00:15:10.662Z,9.43
2022-12-01T00:20:12.177Z,8.05
2022-12-01T00:25:14.168Z,8.95
2022-12-01T00:30:16.033Z,8.73
2022-12-01T00:35:17.542Z,9.27
2022-12-01T00:40:19.042Z,9.85
2022-12-01T00:45:20.425Z,9.35
2022-12-01T00:50:21.795Z,8.98
2022-12-01T00:55:23.186Z,9.43
2022-12-01T01:00:24.594Z,9.00
2022-12-01T01:05:25.967Z,9.85
2022-12-01T01:10:27.352Z,9.63
2022-12-01T01:15:28.741Z,9.38
2022-12-01T01:20:30.149Z,8.88
2022-12-01T01:25:31.947Z,8.35
2022-12-01T01:30:33.750Z,9.23
2022-12-01T01:35:35.181Z,9.30
2022-12-01T01:40:45.526Z,9.27
2022-12-01T01:45:46.943Z,9.43
2022-12-01T01:50:48.376Z,9.27
2022-12-01T01:55:49.759Z,9.60
2022-12-01T02:00:51.208Z,9.32
2022-12-01T02:05:52.648Z,9.43
2022-12-01T02:11:03.312Z,9.00
2022-12-01T02:16:22.875Z,8.82
2022-12-01T02:21:42.811Z,9.48
2022-12-01T02:26:55.623Z,9.55
2022-12-01T02:32:18.676Z,8.77
2022-12-01T02:37:45.641Z,8.18
2022-12-01T02:43:05.780Z,8.45
2022-12-01T02:48:12.955Z,9.48
2022-12-01T02:53:15.543Z,9.60
2022-12-01T02:58:16.923Z,8.63
2022-12-01T03:03:47.482Z,8.75
2022-12-01T03:09:27.161Z,9.00
2022-12-01T03:14:44.983Z,8.60
2022-12-01T03:19:48.969Z,8.48
2022-12-01T03:24:50.567Z,9.02
2022-12-01T03:29:52.240Z,8.52
2022-12-01T03:34:59.068Z,9.13
2022-12-01T03:40:01.401Z,8.50
2022-12-01T03:45:06.676Z,9.18
2022-12-01T03:50:09.718Z,8.93
2022-12-01T03:55:24.451Z,9.20
2022-12-01T04:00:25.852Z,9.30
2022-12-01T04:05:27.289Z,10.13
2022-12-01T04:10:28.703Z,9.75
2022-12-01T04:15:30.074Z,9.68
2022-12-01T04:20:31.459Z,9.10
2022-12-01T04:25:32.847Z,9.82
2022-12-01T04:30:34.211Z,9.80
2022-12-01T04:35:35.583Z,10.88
2022-12-01T04:40:38.355Z,9.85
2022-12-01T04:45:39.767Z,9.45
2022-12-01T04:50:41.361Z,10.00
2022-12-01T04:55:42.771Z,8.75
2022-12-01T05:00:44.226Z,9.50
2022-12-01T05:05:45.639Z,9.90
2022-12-01T05:10:47.019Z,10.18
2022-12-01T05:15:48.832Z,10.18
2022-12-01T05:20:58.951Z,11.32
2022-12-01T05:26:00.565Z,10.55
2022-12-01T05:31:02.055Z,11.25
2022-12-01T05:36:03.861Z,10.85
2022-12-01T05:41:05.317Z,11.30
2022-12-01T05:46:06.743Z,10.65
2022-12-01T05:51:11.869Z,10.40
2022-12-01T05:56:13.308Z,10.37
2022-12-01T06:01:14.755Z,11.80
2022-12-01T06:06:16.138Z,10.10
2022-12-01T06:11:17.516Z,11.23
2022-12-01T06:16:18.944Z,10.93
2022-12-01T06:21:20.356Z,11.50
2022-12-01T06:26:21.719Z,11.43
2022-12-01T06:31:23.133Z,9.85
2022-12-01T06:36:24.539Z,11.23
2022-12-01T06:41:25.919Z,11.10
2022-12-01T06:46:27.416Z,10.68
2022-12-01T06:51:30.314Z,11.45
2022-12-01T06:56:31.695Z,10.98
2022-12-01T07:01:33.380Z,9.75
2022-12-01T07:06:34.831Z,11.70
2022-12-01T07:11:36.839Z,11.18
2022-12-01T07:16:38.272Z,13.18
2022-12-01T07:21:39.996Z,13.18
2022-12-01T07:26:41.470Z,13.00
2022-12-01T07:31:43.755Z,12.50
2022-12-01T07:36:45.155Z,13.18
2022-12-01T07:41:46.547Z,11.80
2022-12-01T07:46:47.951Z,12.85
2022-12-01T07:51:49.316Z,12.30
2022-12-01T07:56:50.703Z,12.98
2022-12-01T08:01:52.116Z,12.10
2022-12-01T08:06:53.533Z,12.57
2022-12-01T08:11:54.927Z,12.25
2022-12-01T08:16:56.310Z,12.93
2022-12-01T08:21:57.713Z,11.70
2022-12-01T08:26:59.091Z,12.20
2022-12-01T08:32:00.484Z,11.63
2022-12-01T08:37:01.877Z,11.80
2022-12-01T08:42:03.297Z,11.98
2022-12-01T08:47:04.707Z,11.88
2022-12-01T08:52:06.080Z,12.40
2022-12-01T08:57:10.300Z,13.23
2022-12-01T09:02:14.967Z,12.43
2022-12-01T09:07:20.255Z,13.35
2022-12-01T09:12:25.945Z,13.27
2022-12-01T09:17:27.340Z,14.73
2022-12-01T09:22:28.923Z,13.85
2022-12-01T09:27:30.332Z,14.25
2022-12-01T09:32:31.707Z,13.43
2022-12-01T09:37:33.092Z,12.65
2022-12-01T09:42:35.678Z,12.95
2022-12-01T09:47:37.424Z,13.52
2022-12-01T09:52:44.666Z,12.73
2022-12-01T09:57:47.624Z,12.45
2022-12-01T10:02:50.791Z,12.88
2022-12-01T10:07:53.702Z,13.50
2022-12-01T10:12:55.160Z,13.93
2022-12-01T10:18:21.505Z,13.88
2022-12-01T10:23:33.451Z,13.73
2022-12-01T10:29:03.048Z,13.27
2022-12-01T10:34:14.205Z,13.82
2022-12-01T10:39:37.671Z,14.35
2022-12-01T10:44:40.079Z,14.30
2022-12-01T10:49:41.521Z,14.80
2022-12-01T10:54:42.891Z,14.10
2022-12-01T10:59:49.112Z,14.82
2022-12-01T11:05:07.633Z,13.85
2022-12-01T11:10:16.104Z,13.77
2022-12-01T11:15:25.486Z,15.55
2022-12-01T11:20:31.321Z,14.60
2022-12-01T11:25:32.717Z,15.50
2022-12-01T11:30:34.099Z,15.85
2022-12-01T11:35:36.675Z,14.85
2022-12-01T11:40:58.262Z,14.60
2022-12-01T11:46:02.310Z,14.88
2022-12-01T11:51:19.582Z,14.52
2022-12-01T11:56:25.708Z,15.13
2022-12-01T12:01:41.729Z,15.38
2022-12-01T12:06:55.558Z,14.73
2022-12-01T12:12:27.112Z,13.57
2022-12-01T12:17:57.974Z,13.55
2022-12-01T12:23:16.274Z,14.93
2022-12-01T12:28:52.603Z,14.35
2022-12-01T12:34:14.272Z,13.98
2022-12-01T12:39:18.553Z,15.15
2022-12-01T12:44:42.592Z,14.45
2022-12-01T12:49:51.778Z,13.75
2022-12-01T12:54:57.304Z,14.80
2022-12-01T13:00:16.705Z,14.90
2022-12-01T13:05:50.646Z,15.13
2022-12-01T13:11:06.570Z,14.77
2022-12-01T13:16:13.762Z,13.52
2022-12-01T13:21:20.069Z,14.80
2022-12-01T13:26:21.504Z,14.48
2022-12-01T13:31:23.010Z,14.13
2022-12-01T13:36:46.656Z,14.05
2022-12-01T13:41:45.847Z,14.38
2022-12-01T13:46:47.118Z,14.95
2022-12-01T13:52:22.389Z,14.10
2022-12-01T13:57:26.970Z,14.90
2022-12-01T14:02:38.173Z,14.18
2022-12-01T14:07:39.898Z,13.82
2022-12-01T14:12:44.427Z,14.15
2022-12-01T14:17:45.806Z,14.20
2022-12-01T14:22:50.173Z,13.68
2022-12-01T14:27:57.503Z,14.48
2022-12-01T14:33:36.325Z,14.30
2022-12-01T14:38:37.747Z,13.45
2022-12-01T14:43:57.679Z,14.40
2022-12-01T14:48:59.062Z,13.98
2022-12-01T14:54:02.920Z,12.88
2022-12-01T14:59:21.941Z,13.05
2022-12-01T15:04:23.344Z,13.98
2022-12-01T15:09:33.343Z,14.43
2022-12-01T15:14:46.464Z,14.00
2022-12-01T15:19:48.203Z,13.02
2022-12-01T15:24:50.187Z,13.02
2022-12-01T15:29:52.112Z,13.73
2022-12-01T15:34:54.211Z,12.90
2022-12-01T15:40:35.737Z,13.65
2022-12-01T15:45:21.603Z,13.65
2022-12-01T15:50:30.880Z,12.90
2022-12-01T15:55:33.749Z,14.35
2022-12-01T16:00:35.156Z,14.02
2022-12-01T16:05:36.562Z,12.55
2022-12-01T16:10:37.928Z,14.63
2022-12-01T16:15:43.564Z,13.48
2022-12-01T16:20:44.933Z,13.55
2022-12-01T16:25:47.538Z,13.75
2022-12-01T16:30:48.942Z,14.13
2022-12-01T16:35:50.481Z,13.65
2022-12-01T16:40:53.133Z,13.25
2022-12-01T16:46:00.125Z,13.77
2022-12-01T16:51:02.359Z,13.85
2022-12-01T16:56:03.920Z,13.45
2022-12-01T17:01:06.084Z,13.10
2022-12-01T17:06:07.817Z,12.52
2022-12-01T17:11:09.352Z,13.15
2022-12-01T17:16:15.320Z,13.25
2022-12-01T17:21:19.631Z,13.40
2022-12-01T17:26:21.165Z,13.50
2022-12-01T17:31:22.616Z,13.85
2022-12-01T17:36:24.083Z,14.02
2022-12-01T17:41:31.912Z,14.02
2022-12-01T17:46:33.431Z,13.45
2022-12-01T17:51:38.368Z,14.30
2022-12-01T17:56:39.748Z,13.65
2022-12-01T18:01:43.115Z,14.00
2022-12-01T18:06:46.883Z,14.32
2022-12-01T18:11:54.053Z,13.77
2022-12-01T18:16:55.423Z,13.52
2022-12-01T18:21:56.795Z,12.68
2022-12-01T18:26:58.216Z,13.20
2022-12-01T18:31:59.847Z,13.38
2022-12-01T18:37:02.428Z,13.93
2022-12-01T18:42:03.887Z,14.35
2022-12-01T18:47:06.325Z,13.23
2022-12-01T18:52:07.761Z,13.73
2022-12-01T18:57:09.127Z,12.57
2022-12-01T19:02:10.663Z,13.98
2022-12-01T19:07:12.052Z,12.57
2022-12-01T19:12:13.479Z,12.75
2022-12-01T19:17:14.878Z,12.75
2022-12-01T19:22:16.248Z,13.75
2022-12-01T19:27:20.504Z,13.60
2022-12-01T19:32:21.900Z,12.77
2022-12-01T19:37:23.278Z,12.73
2022-12-01T19:42:24.669Z,12.70
2022-12-01T19:47:26.596Z,13.05
2022-12-01T19:52:28.550Z,12.80
2022-12-01T19:57:29.948Z,11.73
2022-12-01T20:02:31.401Z,13.23
2022-12-01T20:07:32.837Z,13.30
2022-12-01T20:12:34.423Z,12.75
2022-12-01T20:17:36.518Z,13.40
2022-12-01T20:22:37.995Z,13.13
2022-12-01T20:27:39.565Z,12.70
2022-12-01T20:32:40.954Z,11.43
2022-12-01T20:37:42.331Z,12.18
2022-12-01T20:42:43.720Z,10.75
2022-12-01T20:47:45.096Z,13.23
2022-12-01T20:52:46.465Z,12.60
2022-12-01T20:57:47.872Z,12.23
2022-12-01T21:02:49.401Z,12.00
2022-12-01T21:07:50.889Z,12.70
2022-12-01T21:13:13.450Z,13.45
2022-12-01T21:18:20.712Z,12.45
2022-12-01T21:23:22.308Z,12.52
2022-12-01T21:28:24.625Z,12.70
2022-12-01T21:33:33.424Z,11.90
2022-12-01T21:38:34.792Z,12.00
2022-12-01T21:43:38.371Z,12.13
2022-12-01T21:48:40.039Z,12.18
2022-12-01T21:53:41.469Z,12.23
2022-12-01T21:58:42.842Z,13.48
2022-12-01T22:03:45.468Z,12.25
2022-12-01T22:08:49.387Z,12.95
2022-12-01T22:14:09.639Z,11.45
2022-12-01T22:19:16.875Z,12.27
2022-12-01T22:24:22.129Z,13.13
2022-12-01T22:29:28.584Z,11.45
2022-12-01T22:34:30.057Z,11.82
2022-12-01T22:39:33.898Z,11.98
2022-12-01T22:44:35.284Z,12.40
2022-12-01T22:49:36.713Z,11.25
2022-12-01T22:54:39.436Z,11.82
2022-12-01T22:59:42.141Z,12.27
2022-12-01T23:04:44.823Z,11.27
2022-12-01T23:09:46.191Z,11.57
2022-12-01T23:14:49.429Z,11.63
2022-12-01T23:19:52.359Z,12.07
2022-12-01T23:24:53.875Z,11.45
2022-12-01T23:29:55.248Z,11.88
2022-12-01T23:35:00.207Z,11.52
2022-12-01T23:40:04.848Z,10.80
2022-12-01T23:45:27.186Z,11.43
2022-12-01T23:50:28.561Z,11.00
2022-12-01T23:55:30.141Z,11.85
